createdAt,value
2017-08-26T00:00:31.201Z,12.80
2017-08-26T00:03:03.453Z,12.70
2017-08-26T00:05:29.660Z,12.80
2017-08-26T00:07:55.871Z,12.80
2017-08-26T00:10:22.116Z,12.80
2017-08-26T00:12:48.339Z,12.80
2017-08-26T00:15:14.576Z,12.70
2017-08-26T00:17:40.799Z,12.80
2017-08-26T00:20:07.024Z,12.70
2017-08-26T00:22:33.245Z,12.80
2017-08-26T00:24:59.503Z,12.80
2017-08-26T00:27:25.717Z,12.80
2017-08-26T00:29:51.935Z,12.70
2017-08-26T00:32:18.177Z,12.80
2017-08-26T00:34:44.415Z,12.80
2017-08-26T00:37:10.637Z,12.90
2017-08-26T00:39:36.872Z,12.80
2017-08-26T00:42:03.098Z,12.90
2017-08-26T00:44:29.363Z,12.90
2017-08-26T00:46:55.619Z,13.00
2017-08-26T00:49:21.857Z,13.00
2017-08-26T00:51:48.307Z,12.90
2017-08-26T00:54:14.553Z,12.80
2017-08-26T00:56:40.771Z,12.70
2017-08-26T00:59:07.038Z,12.70
2017-08-26T01:01:33.264Z,12.60
2017-08-26T01:03:59.553Z,12.60
2017-08-26T01:06:25.850Z,12.60
2017-08-26T01:08:52.082Z,12.60
2017-08-26T01:11:18.340Z,12.60
2017-08-26T01:13:44.601Z,12.70
2017-08-26T01:16:10.863Z,12.70
2017-08-26T01:18:37.079Z,12.60
2017-08-26T01:21:03.347Z,12.50
2017-08-26T01:23:29.552Z,12.50
2017-08-26T01:25:55.761Z,12.50
2017-08-26T01:28:22.008Z,12.40
2017-08-26T01:30:48.248Z,12.40
2017-08-26T01:33:14.471Z,12.30
2017-08-26T01:35:40.738Z,12.30
2017-08-26T01:38:06.947Z,12.30
2017-08-26T01:40:33.159Z,12.30
2017-08-26T01:43:06.271Z,12.20
2017-08-26T01:45:32.488Z,12.30
2017-08-26T01:47:58.705Z,12.30
2017-08-26T01:50:25.242Z,12.40
2017-08-26T01:52:51.450Z,12.40
2017-08-26T01:55:17.666Z,12.20
2017-08-26T01:57:43.895Z,12.20
2017-08-26T02:00:10.135Z,12.20
2017-08-26T02:02:36.361Z,12.10
2017-08-26T02:05:02.592Z,12.10
2017-08-26T02:07:29.152Z,12.00
2017-08-26T02:09:55.368Z,12.00
2017-08-26T02:12:21.581Z,12.10
2017-08-26T02:14:47.812Z,12.10
2017-08-26T02:17:14.090Z,12.20
2017-08-26T02:19:40.303Z,12.20
2017-08-26T02:22:06.695Z,12.20
2017-08-26T02:24:32.914Z,12.10
2017-08-26T02:26:59.141Z,12.00
2017-08-26T02:29:25.613Z,12.00
2017-08-26T02:31:51.832Z,12.00
2017-08-26T02:34:18.041Z,12.00
2017-08-26T02:36:44.288Z,11.90
2017-08-26T02:39:10.512Z,11.90
2017-08-26T02:41:36.715Z,11.90
2017-08-26T02:44:03.103Z,12.00
2017-08-26T02:46:29.311Z,12.00
2017-08-26T02:48:55.514Z,12.00
2017-08-26T02:51:21.997Z,11.90
2017-08-26T02:53:48.225Z,11.90
2017-08-26T02:56:14.447Z,11.80
2017-08-26T02:58:40.676Z,11.80
2017-08-26T03:01:06.892Z,11.80
2017-08-26T03:03:33.130Z,11.70
2017-08-26T03:05:59.338Z,11.70
2017-08-26T03:08:25.546Z,11.80
2017-08-26T03:10:51.794Z,11.80
2017-08-26T03:13:18.021Z,11.70
2017-08-26T03:15:44.551Z,11.70
2017-08-26T03:18:10.799Z,11.60
2017-08-26T03:20:37.015Z,11.60
2017-08-26T03:23:03.445Z,11.60
2017-08-26T03:25:29.657Z,11.70
2017-08-26T03:27:55.862Z,11.60
2017-08-26T03:30:22.110Z,11.60
2017-08-26T03:32:48.333Z,11.60
2017-08-26T03:35:14.538Z,11.70
2017-08-26T03:37:40.759Z,11.80
2017-08-26T03:40:06.975Z,11.90
2017-08-26T03:42:33.215Z,12.00
2017-08-26T03:44:59.488Z,12.10
2017-08-26T03:47:25.713Z,12.20
2017-08-26T03:49:51.914Z,12.10
2017-08-26T03:52:18.168Z,12.10
2017-08-26T03:54:44.395Z,12.10
2017-08-26T03:57:10.594Z,12.00
2017-08-26T03:59:36.923Z,12.10
2017-08-26T04:02:03.179Z,12.00
2017-08-26T04:04:29.401Z,12.10
2017-08-26T04:06:55.610Z,12.20
2017-08-26T04:09:21.851Z,12.20
2017-08-26T04:11:48.095Z,12.10
2017-08-26T04:14:14.309Z,12.10
2017-08-26T04:16:40.525Z,12.10
2017-08-26T04:19:06.823Z,12.10
2017-08-26T04:21:33.071Z,12.10
2017-08-26T04:23:59.306Z,12.10
2017-08-26T04:26:25.548Z,12.10
2017-08-26T04:28:51.755Z,12.10
2017-08-26T04:31:17.979Z,12.00
2017-08-26T04:33:44.260Z,12.00
2017-08-26T04:36:10.464Z,12.10
2017-08-26T04:38:36.679Z,12.10
2017-08-26T04:41:02.924Z,12.10
2017-08-26T04:43:29.122Z,12.10
2017-08-26T04:45:55.358Z,12.10
2017-08-26T04:48:21.739Z,12.10
2017-08-26T04:50:47.959Z,12.20
2017-08-26T04:53:14.177Z,12.20
2017-08-26T04:55:40.419Z,12.30
2017-08-26T04:58:06.643Z,12.20
2017-08-26T05:00:32.860Z,12.20
2017-08-26T05:02:59.120Z,12.30
2017-08-26T05:05:25.340Z,12.30
2017-08-26T05:07:51.560Z,12.30
2017-08-26T05:10:17.800Z,12.30
2017-08-26T05:12:43.999Z,12.30
2017-08-26T05:15:10.236Z,12.40
2017-08-26T05:17:36.473Z,12.40
2017-08-26T05:20:02.695Z,12.40
2017-08-26T05:22:28.925Z,12.40
2017-08-26T05:24:55.157Z,12.40
2017-08-26T05:27:21.378Z,12.40
2017-08-26T05:29:47.605Z,12.50
2017-08-26T05:32:13.875Z,12.50
2017-08-26T05:34:40.083Z,12.60
2017-08-26T05:37:06.291Z,12.60
2017-08-26T05:39:32.558Z,12.70
2017-08-26T05:41:58.814Z,12.80
2017-08-26T05:44:25.028Z,12.80
2017-08-26T05:46:51.256Z,12.80
2017-08-26T05:49:17.457Z,12.90
2017-08-26T05:51:43.661Z,13.00
2017-08-26T05:54:09.899Z,13.10
2017-08-26T05:56:36.118Z,13.00
2017-08-26T05:59:02.378Z,13.00
2017-08-26T06:01:28.797Z,13.10
2017-08-26T06:03:55.036Z,13.20
2017-08-26T06:06:21.244Z,13.20
2017-08-26T06:08:47.480Z,13.30
2017-08-26T06:11:13.707Z,13.40
2017-08-26T06:13:39.915Z,13.50
2017-08-26T06:16:06.450Z,13.60
2017-08-26T06:18:32.671Z,13.60
2017-08-26T06:20:59.888Z,13.80
2017-08-26T06:23:26.149Z,13.80
2017-08-26T06:25:52.399Z,13.90
2017-08-26T06:28:18.626Z,13.90
2017-08-26T06:30:44.855Z,14.00
2017-08-26T06:33:11.060Z,14.10
2017-08-26T06:35:37.288Z,14.10
2017-08-26T06:38:03.831Z,14.20
2017-08-26T06:40:30.048Z,14.30
2017-08-26T06:42:56.263Z,14.40
2017-08-26T06:45:22.541Z,14.50
2017-08-26T06:47:49.548Z,14.50
2017-08-26T06:50:15.780Z,14.60
2017-08-26T06:52:42.020Z,14.70
2017-08-26T06:55:08.231Z,14.80
2017-08-26T06:57:35.348Z,14.90
2017-08-26T07:00:02.064Z,15.00
2017-08-26T07:02:28.283Z,15.00
2017-08-26T07:04:54.485Z,15.10
2017-08-26T07:07:20.717Z,15.20
2017-08-26T07:09:46.928Z,15.30
2017-08-26T07:12:13.148Z,15.40
2017-08-26T07:14:39.384Z,15.50
2017-08-26T07:17:05.604Z,15.60
2017-08-26T07:19:31.927Z,15.70
2017-08-26T07:21:58.495Z,15.80
2017-08-26T07:24:24.709Z,15.90
2017-08-26T07:26:50.926Z,16.00
2017-08-26T07:29:17.184Z,16.10
2017-08-26T07:31:43.759Z,16.30
2017-08-26T07:34:10.163Z,16.40
2017-08-26T07:36:36.488Z,16.50
2017-08-26T07:39:02.782Z,16.60
2017-08-26T07:41:29.302Z,16.70
2017-08-26T07:43:55.570Z,16.80
2017-08-26T07:46:21.775Z,16.90
2017-08-26T07:48:48.033Z,17.00
2017-08-26T07:51:14.740Z,17.10
2017-08-26T07:53:41.060Z,17.20
2017-08-26T07:56:07.291Z,17.40
2017-08-26T07:58:33.530Z,17.40
2017-08-26T08:01:00.000Z,17.60
2017-08-26T08:03:27.288Z,17.70
2017-08-26T08:05:53.631Z,17.70
2017-08-26T08:08:19.869Z,17.90
2017-08-26T08:10:46.458Z,18.00
2017-08-26T08:13:12.725Z,18.10
2017-08-26T08:15:38.942Z,18.30
2017-08-26T08:18:05.211Z,18.30
2017-08-26T08:20:31.448Z,18.40
2017-08-26T08:22:58.084Z,18.50
2017-08-26T08:25:24.596Z,18.70
2017-08-26T08:27:50.991Z,18.80
2017-08-26T08:30:17.208Z,18.90
2017-08-26T08:32:43.529Z,18.90
2017-08-26T08:35:17.438Z,19.00
2017-08-26T08:37:43.736Z,19.10
2017-08-26T08:40:09.955Z,19.20
2017-08-26T08:42:36.182Z,19.30
2017-08-26T08:45:02.655Z,19.50
2017-08-26T08:47:28.925Z,19.60
2017-08-26T08:49:55.168Z,19.80
2017-08-26T08:52:21.428Z,19.80
2017-08-26T08:54:47.829Z,19.90
2017-08-26T08:57:14.151Z,19.90
2017-08-26T08:59:40.358Z,20.00
2017-08-26T09:02:06.954Z,20.10
2017-08-26T09:04:40.260Z,20.20
2017-08-26T09:07:06.474Z,20.30
2017-08-26T09:09:32.927Z,20.30
2017-08-26T09:11:59.480Z,20.40
2017-08-26T09:14:25.694Z,20.50
2017-08-26T09:16:51.983Z,20.60
2017-08-26T09:19:22.976Z,20.70
2017-08-26T09:21:49.358Z,20.80
2017-08-26T09:24:16.259Z,21.00
2017-08-26T09:26:42.877Z,21.10
2017-08-26T09:29:09.128Z,21.30
2017-08-26T09:31:35.681Z,21.30
2017-08-26T09:34:02.072Z,21.30
2017-08-26T09:36:28.842Z,21.40
2017-08-26T09:38:55.369Z,21.60
2017-08-26T09:41:21.628Z,21.60
2017-08-26T09:43:47.860Z,21.60
2017-08-26T09:46:14.159Z,21.50
2017-08-26T09:48:40.425Z,21.50
2017-08-26T09:51:06.658Z,21.60
2017-08-26T09:53:32.888Z,21.60
2017-08-26T09:55:59.551Z,21.70
2017-08-26T09:58:25.798Z,21.90
2017-08-26T10:00:52.062Z,22.00
2017-08-26T10:03:18.297Z,22.00
2017-08-26T10:05:44.788Z,22.10
2017-08-26T10:08:11.015Z,22.20
2017-08-26T10:10:37.248Z,22.30
2017-08-26T10:13:03.905Z,22.50
2017-08-26T10:15:30.133Z,22.50
2017-08-26T10:17:56.347Z,22.50
2017-08-26T10:20:22.634Z,22.70
2017-08-26T10:22:49.136Z,22.80
2017-08-26T10:25:15.367Z,23.00
2017-08-26T10:27:41.624Z,23.50
2017-08-26T10:30:08.005Z,23.70
2017-08-26T10:32:34.648Z,23.90
2017-08-26T10:35:01.192Z,23.90
2017-08-26T10:37:27.529Z,24.00
2017-08-26T10:39:53.912Z,24.00
2017-08-26T10:42:20.439Z,23.90
2017-08-26T10:44:46.704Z,23.70
2017-08-26T10:47:19.940Z,23.70
2017-08-26T10:49:46.337Z,23.60
2017-08-26T10:52:12.588Z,23.50
2017-08-26T10:54:38.872Z,23.50
2017-08-26T10:57:05.140Z,23.50
2017-08-26T10:59:31.440Z,23.60
2017-08-26T11:01:57.722Z,23.80
2017-08-26T11:04:23.965Z,23.90
2017-08-26T11:06:50.332Z,24.10
2017-08-26T11:09:16.630Z,24.30
2017-08-26T11:11:42.885Z,24.40
2017-08-26T11:14:09.167Z,24.60
2017-08-26T11:16:35.399Z,24.50
2017-08-26T11:19:01.645Z,24.50
2017-08-26T11:21:27.946Z,24.60
2017-08-26T11:23:54.168Z,24.70
2017-08-26T11:26:20.422Z,24.90
2017-08-26T11:28:46.863Z,25.00
2017-08-26T11:31:13.110Z,25.10
2017-08-26T11:33:39.474Z,25.00
2017-08-26T11:36:05.746Z,25.00
2017-08-26T11:38:32.069Z,25.00
2017-08-26T11:40:58.540Z,25.10
2017-08-26T11:43:25.005Z,24.80
2017-08-26T11:45:51.231Z,24.80
2017-08-26T11:48:17.466Z,25.10
2017-08-26T11:50:43.738Z,25.30
2017-08-26T11:53:09.976Z,25.40
2017-08-26T11:55:36.511Z,25.60
2017-08-26T11:58:02.813Z,25.70
2017-08-26T12:00:29.305Z,25.90
2017-08-26T12:02:55.568Z,26.10
2017-08-26T12:05:21.845Z,26.40
2017-08-26T12:07:48.276Z,26.10
2017-08-26T12:10:14.593Z,26.50
2017-08-26T12:12:41.201Z,26.50
2017-08-26T12:15:07.429Z,26.30
2017-08-26T12:17:34.011Z,26.20
2017-08-26T12:20:00.749Z,26.50
2017-08-26T12:22:26.993Z,26.90
2017-08-26T12:24:53.212Z,27.30
2017-08-26T12:27:19.476Z,27.00
2017-08-26T12:29:45.726Z,26.70
2017-08-26T12:32:11.940Z,26.80
2017-08-26T12:34:38.389Z,26.50
2017-08-26T12:37:04.908Z,26.10
2017-08-26T12:39:31.128Z,25.90
2017-08-26T12:41:57.372Z,25.60
2017-08-26T12:44:23.912Z,25.40
2017-08-26T12:46:50.156Z,25.30
2017-08-26T12:49:16.376Z,25.40
2017-08-26T12:51:42.834Z,25.30
2017-08-26T12:54:09.064Z,25.10
2017-08-26T12:56:35.578Z,24.90
2017-08-26T12:59:02.011Z,24.70
2017-08-26T13:01:28.232Z,24.60
2017-08-26T13:06:27.247Z,24.70
2017-08-26T13:08:53.858Z,24.50
2017-08-26T13:11:20.086Z,24.40
2017-08-26T13:13:46.316Z,24.20
2017-08-26T13:16:12.620Z,23.90
2017-08-26T13:18:38.847Z,23.80
2017-08-26T13:21:05.066Z,23.70
2017-08-26T13:23:31.304Z,23.60
2017-08-26T13:25:57.530Z,23.60
2017-08-26T13:28:23.773Z,23.60
2017-08-26T13:30:50.021Z,23.50
2017-08-26T13:33:16.426Z,23.50
2017-08-26T13:35:42.639Z,23.50
2017-08-26T13:38:09.041Z,23.70
2017-08-26T13:40:35.268Z,23.60
2017-08-26T13:43:01.521Z,23.50
2017-08-26T13:45:27.772Z,23.50
2017-08-26T13:47:54.004Z,23.40
2017-08-26T13:50:20.494Z,23.30
2017-08-26T13:52:46.741Z,23.30
2017-08-26T13:55:12.958Z,23.10
2017-08-26T13:57:39.176Z,23.10
2017-08-26T14:00:05.448Z,23.20
2017-08-26T14:02:31.709Z,23.30
2017-08-26T14:04:57.928Z,23.30
2017-08-26T14:07:24.454Z,23.50
2017-08-26T14:09:50.692Z,23.80
2017-08-26T14:12:16.920Z,24.40
2017-08-26T14:14:43.150Z,24.90
2017-08-26T14:17:09.384Z,25.70
2017-08-26T14:19:35.622Z,26.50
2017-08-26T14:22:02.237Z,26.50
2017-08-26T14:24:28.459Z,26.90
2017-08-26T14:26:55.007Z,27.00
2017-08-26T14:29:21.259Z,26.50
2017-08-26T14:31:47.463Z,25.80
2017-08-26T14:34:13.675Z,25.60
2017-08-26T14:36:39.928Z,25.30
2017-08-26T14:39:06.188Z,25.00
2017-08-26T14:41:33.121Z,24.70
2017-08-26T14:44:00.034Z,24.40
2017-08-26T14:46:26.271Z,24.20
2017-08-26T14:48:52.483Z,24.10
2017-08-26T14:51:18.855Z,24.00
2017-08-26T14:53:45.761Z,23.90
2017-08-26T14:56:12.023Z,24.10
2017-08-26T14:58:38.239Z,24.30
2017-08-26T15:01:04.452Z,24.30
2017-08-26T15:03:30.703Z,24.30
2017-08-26T15:05:56.963Z,24.30
2017-08-26T15:08:23.384Z,24.10
2017-08-26T15:10:49.896Z,23.90
2017-08-26T15:13:16.101Z,23.70
2017-08-26T15:15:42.324Z,23.50
2017-08-26T15:18:08.659Z,23.40
2017-08-26T15:20:35.784Z,23.20
2017-08-26T15:23:02.073Z,23.10
2017-08-26T15:25:28.304Z,23.00
2017-08-26T15:27:54.532Z,23.00
2017-08-26T15:30:21.895Z,22.90
2017-08-26T15:32:48.968Z,22.90
2017-08-26T15:35:15.992Z,22.80
2017-08-26T15:37:43.183Z,22.80
2017-08-26T15:40:10.015Z,22.60
2017-08-26T15:42:37.217Z,22.50
2017-08-26T15:45:04.618Z,22.40
2017-08-26T15:47:31.997Z,22.30
2017-08-26T15:49:58.695Z,22.30
2017-08-26T15:52:25.237Z,22.20
2017-08-26T15:54:51.524Z,22.20
2017-08-26T15:57:18.529Z,22.30
2017-08-26T15:59:45.643Z,22.30
2017-08-26T16:02:12.740Z,22.30
2017-08-26T16:04:39.988Z,22.30
2017-08-26T16:07:06.850Z,22.50
2017-08-26T16:09:33.714Z,22.60
2017-08-26T16:12:01.011Z,22.70
2017-08-26T16:14:28.144Z,22.70
2017-08-26T16:16:54.903Z,22.60
2017-08-26T16:19:21.600Z,22.50
2017-08-26T16:21:49.086Z,22.40
2017-08-26T16:24:15.864Z,22.30
2017-08-26T16:26:43.227Z,22.20
2017-08-26T16:29:10.388Z,22.10
2017-08-26T16:31:37.734Z,22.00
2017-08-26T16:34:05.377Z,22.00
2017-08-26T16:36:32.484Z,22.00
2017-08-26T16:38:59.671Z,21.90
2017-08-26T16:41:26.579Z,21.80
2017-08-26T16:43:53.609Z,21.70
2017-08-26T16:46:20.734Z,21.70
2017-08-26T16:48:47.906Z,21.70
2017-08-26T16:51:15.112Z,21.60
2017-08-26T16:53:41.337Z,21.50
2017-08-26T16:56:07.541Z,21.50
2017-08-26T16:58:33.740Z,21.50
2017-08-26T17:01:00.895Z,21.50
2017-08-26T17:03:27.596Z,21.40
2017-08-26T17:05:53.985Z,21.40
2017-08-26T17:08:20.226Z,21.40
2017-08-26T17:10:46.442Z,21.30
2017-08-26T17:13:12.836Z,21.20
2017-08-26T17:15:39.083Z,21.20
2017-08-26T17:18:05.308Z,21.20
2017-08-26T17:20:31.536Z,21.20
2017-08-26T17:22:57.778Z,21.10
2017-08-26T17:25:24.013Z,21.00
2017-08-26T17:27:50.480Z,21.00
2017-08-26T17:30:16.715Z,20.90
2017-08-26T17:32:42.929Z,20.90
2017-08-26T17:35:09.144Z,20.90
2017-08-26T17:37:35.617Z,20.90
2017-08-26T17:40:01.975Z,20.90
2017-08-26T17:42:28.187Z,20.80
2017-08-26T17:44:54.558Z,20.80
2017-08-26T17:47:20.775Z,20.80
2017-08-26T17:49:47.238Z,20.80
2017-08-26T17:52:13.455Z,20.80
2017-08-26T17:54:39.792Z,20.70
2017-08-26T17:57:06.071Z,20.70
2017-08-26T17:59:32.358Z,20.70
2017-08-26T18:01:58.903Z,20.70
2017-08-26T18:04:25.175Z,20.60
2017-08-26T18:06:51.824Z,20.60
2017-08-26T18:09:18.028Z,20.60
2017-08-26T18:11:44.312Z,20.60
2017-08-26T18:14:10.536Z,20.50
2017-08-26T18:16:36.739Z,20.50
2017-08-26T18:19:03.296Z,20.50
2017-08-26T18:21:29.511Z,20.40
2017-08-26T18:23:56.265Z,20.40
2017-08-26T18:26:22.598Z,20.30
2017-08-26T18:28:48.815Z,20.30
2017-08-26T18:31:15.045Z,20.30
2017-08-26T18:33:41.292Z,20.20
2017-08-26T18:36:07.505Z,20.10
2017-08-26T18:38:33.814Z,20.10
2017-08-26T18:41:00.053Z,20.10
2017-08-26T18:43:26.247Z,20.00
2017-08-26T18:45:52.479Z,19.90
2017-08-26T18:48:18.681Z,20.00
2017-08-26T18:50:44.888Z,19.90
2017-08-26T18:53:11.114Z,19.80
2017-08-26T18:55:37.540Z,19.80
2017-08-26T18:58:03.752Z,19.80
2017-08-26T19:00:29.959Z,19.70
2017-08-26T19:02:56.329Z,19.70
2017-08-26T19:05:22.531Z,19.70
2017-08-26T19:07:48.989Z,19.60
2017-08-26T19:10:15.434Z,19.50
2017-08-26T19:12:41.719Z,19.50
2017-08-26T19:15:07.948Z,19.50
2017-08-26T19:17:34.294Z,19.40
2017-08-26T19:20:00.886Z,19.40
2017-08-26T19:22:27.095Z,19.30
2017-08-26T19:24:53.308Z,19.30
2017-08-26T19:27:19.498Z,19.30
2017-08-26T19:29:45.963Z,19.30
2017-08-26T19:32:12.179Z,19.20
2017-08-26T19:34:38.550Z,19.30
2017-08-26T19:37:04.877Z,19.20
2017-08-26T19:39:31.284Z,19.20
2017-08-26T19:41:57.486Z,19.20
2017-08-26T19:44:24.050Z,19.10
2017-08-26T19:46:50.249Z,19.00
2017-08-26T19:49:16.442Z,19.00
2017-08-26T19:51:42.664Z,19.00
2017-08-26T19:54:08.864Z,19.00
2017-08-26T19:56:35.099Z,19.00
2017-08-26T19:59:01.625Z,18.90
2017-08-26T20:01:27.848Z,18.90
2017-08-26T20:03:54.053Z,18.90
2017-08-26T20:06:20.300Z,18.80
2017-08-26T20:08:46.648Z,18.80
2017-08-26T20:11:12.856Z,18.70
2017-08-26T20:13:39.056Z,18.70
2017-08-26T20:16:05.319Z,18.70
2017-08-26T20:18:31.538Z,18.70
2017-08-26T20:20:57.765Z,18.70
2017-08-26T20:23:23.982Z,18.60
2017-08-26T20:25:50.179Z,18.70
2017-08-26T20:28:16.381Z,18.60
2017-08-26T20:30:42.603Z,18.60
2017-08-26T20:33:08.947Z,18.60
2017-08-26T20:35:35.185Z,18.60
2017-08-26T20:38:01.412Z,18.50
2017-08-26T20:40:27.652Z,18.50
2017-08-26T20:42:54.240Z,18.50
2017-08-26T20:45:20.566Z,18.50
2017-08-26T20:47:46.814Z,18.40
2017-08-26T20:50:13.025Z,18.40
2017-08-26T20:52:39.229Z,18.30
2017-08-26T20:55:05.461Z,18.40
2017-08-26T20:57:31.695Z,18.30
2017-08-26T20:59:58.244Z,18.30
2017-08-26T21:02:24.464Z,18.30
2017-08-26T21:04:50.679Z,18.30
2017-08-26T21:07:17.080Z,18.40
2017-08-26T21:09:43.285Z,18.40
2017-08-26T21:12:09.699Z,18.30
2017-08-26T21:14:36.119Z,18.30
2017-08-26T21:17:02.364Z,18.20
2017-08-26T21:19:28.567Z,18.20
2017-08-26T21:21:55.425Z,18.10
2017-08-26T21:24:21.603Z,18.10
2017-08-26T21:26:48.866Z,18.10
2017-08-26T21:29:15.770Z,18.10
2017-08-26T21:31:41.973Z,18.10
2017-08-26T21:34:08.184Z,18.10
2017-08-26T21:36:34.728Z,18.10
2017-08-26T21:39:00.924Z,18.10
2017-08-26T21:41:27.419Z,18.10
2017-08-26T21:43:53.748Z,18.00
2017-08-26T21:46:20.616Z,18.00
2017-08-26T21:48:46.832Z,18.00
2017-08-26T21:51:13.063Z,18.00
2017-08-26T21:53:39.304Z,17.90
2017-08-26T21:56:05.519Z,18.00
2017-08-26T21:58:31.720Z,18.00
2017-08-26T22:00:57.978Z,18.00
2017-08-26T22:03:24.182Z,18.10
2017-08-26T22:05:50.384Z,18.00
2017-08-26T22:08:16.809Z,18.00
2017-08-26T22:10:43.019Z,18.00
2017-08-26T22:13:09.216Z,17.90
2017-08-26T22:15:35.436Z,17.80
2017-08-26T22:18:01.832Z,17.70
2017-08-26T22:20:28.047Z,17.70
2017-08-26T22:22:54.244Z,17.70
2017-08-26T22:25:20.719Z,17.60
2017-08-26T22:27:46.923Z,17.60
2017-08-26T22:30:13.164Z,17.60
2017-08-26T22:32:39.710Z,17.60
2017-08-26T22:35:05.919Z,17.60
2017-08-26T22:37:32.155Z,17.60
2017-08-26T22:39:58.400Z,17.50
2017-08-26T22:42:24.612Z,17.50
2017-08-26T22:44:50.809Z,17.40
2017-08-26T22:47:17.059Z,17.40
2017-08-26T22:49:43.290Z,17.40
2017-08-26T22:52:09.505Z,17.40
2017-08-26T22:54:35.703Z,17.30
2017-08-26T22:57:01.924Z,17.30
2017-08-26T22:59:28.181Z,17.20
2017-08-26T23:01:54.379Z,17.20
2017-08-26T23:04:20.601Z,17.20
2017-08-26T23:06:46.829Z,17.20
2017-08-26T23:09:13.043Z,17.20
2017-08-26T23:11:39.260Z,17.10
2017-08-26T23:14:05.508Z,17.10
2017-08-26T23:16:31.719Z,17.10
2017-08-26T23:18:57.936Z,17.10
2017-08-26T23:21:24.173Z,17.10
2017-08-26T23:23:50.379Z,17.10
2017-08-26T23:26:16.576Z,17.00
2017-08-26T23:28:42.784Z,16.90
2017-08-26T23:31:08.980Z,16.80
2017-08-26T23:33:35.208Z,16.80
2017-08-26T23:36:01.420Z,16.80
2017-08-26T23:38:27.619Z,16.70
2017-08-26T23:40:53.854Z,16.70
2017-08-26T23:43:20.040Z,16.60
2017-08-26T23:45:46.258Z,16.60
2017-08-26T23:48:12.787Z,16.60
2017-08-26T23:50:39.003Z,16.50
2017-08-26T23:53:05.204Z,16.50
2017-08-26T23:55:31.431Z,16.50
2017-08-26T23:58:04.595Z,16.50
